Time;durP1;ratioP1;P1;durP2;ratioP2;P2;SDS_P1;SDS_P2;PMS_P1;PMS_P2;Temp;Humidity;BMP_temperature;BMP_pressure;BME280_temperature;BME280_humidity;BME280_pressure;Samples;Min_cycle;Max_cycle;Signal;HPM_P1;HPM_P2
2022/12/28 00:00:22;;;;;;;19.00;9.33;;;;;;;1.17;91.01;99731.91;2281671;77;20898;-83
2022/12/28 00:03:22;;;;;;;21.83;9.70;;;;;;;1.25;90.96;99731.99;2281172;78;21041;-84
2022/12/28 00:06:23;;;;;;;18.77;9.43;;;;;;;1.33;90.73;99720.00;2281318;77;20950;-83
2022/12/28 00:09:23;;;;;;;22.30;9.87;;;;;;;1.35;90.48;99722.27;2281061;78;20974;-82
2022/12/28 00:12:24;;;;;;;19.37;9.50;;;;;;;1.39;90.73;99724.24;2281097;77;20966;-82
2022/12/28 00:15:24;;;;;;;19.80;9.27;;;;;;;1.42;90.76;99715.42;2281145;77;20918;-83
2022/12/28 00:18:24;;;;;;;14.33;8.60;;;;;;;1.54;90.77;99714.89;2281221;77;20965;-85
2022/12/28 00:21:25;;;;;;;16.40;9.00;;;;;;;1.54;90.77;99714.89;2285381;77;20975;-82
2022/12/28 00:24:25;;;;;;;16.70;8.47;;;;;;;1.58;90.70;99719.42;2290742;78;20929;-83
2022/12/28 00:27:26;;;;;;;20.90;9.40;;;;;;;1.58;90.70;99720.31;2291174;78;20956;-83
2022/12/28 00:30:26;;;;;;;13.87;8.17;;;;;;;1.61;90.77;99719.61;2291002;78;20940;-84
2022/12/28 00:33:26;;;;;;;16.87;8.70;;;;;;;1.65;90.58;99720.69;2290979;78;20999;-83
2022/12/28 00:36:27;;;;;;;14.23;8.30;;;;;;;1.65;90.58;99720.69;2290989;78;21324;-83
2022/12/28 00:39:27;;;;;;;18.03;8.53;;;;;;;1.60;90.50;99722.58;2291755;78;21269;-82
2022/12/28 00:42:28;;;;;;;14.87;8.50;;;;;;;1.57;90.56;99711.22;2292234;78;20932;-84
2022/12/28 00:45:28;;;;;;;17.33;8.50;;;;;;;1.55;90.36;99715.38;2292899;78;21276;-83
2022/12/28 00:48:28;;;;;;;15.47;8.67;;;;;;;1.49;90.54;99712.44;2292209;78;21406;-83
2022/12/28 00:51:29;;;;;;;17.37;8.43;;;;;;;1.49;90.61;99715.00;2291987;78;20951;-84
2022/12/28 00:54:29;;;;;;;10.63;7.30;;;;;;;1.47;90.55;99715.31;2291435;78;20936;-85
2022/12/28 00:57:30;;;;;;;15.27;8.00;;;;;;;1.41;90.45;99721.37;2291110;78;21308;-84
2022/12/28 01:00:30;;;;;;;15.87;8.53;;;;;;;1.39;90.51;99728.98;2291093;78;20893;-84
2022/12/28 01:03:30;;;;;;;16.13;8.80;;;;;;;1.37;90.56;99729.69;2290943;78;20992;-84
2022/12/28 01:06:31;;;;;;;14.60;9.27;;;;;;;1.36;90.68;99726.63;2292210;78;20933;-83
2022/12/28 01:09:31;;;;;;;21.57;8.70;;;;;;;1.37;90.71;99728.01;2292383;78;20999;-84
2022/12/28 01:12:32;;;;;;;17.63;8.93;;;;;;;1.39;90.66;99731.56;2291665;78;20944;-85
2022/12/28 01:15:32;;;;;;;20.77;9.20;;;;;;;1.42;90.74;99728.29;2291984;78;20932;-84
2022/12/28 01:18:32;;;;;;;14.33;9.17;;;;;;;1.45;90.73;99729.77;2292162;78;21436;-83
2022/12/28 01:21:33;;;;;;;15.73;9.20;;;;;;;1.48;90.77;99726.98;2288591;77;20962;-84
2022/12/28 01:24:33;;;;;;;15.87;8.40;;;;;;;1.53;90.69;99716.97;2282438;77;20997;-82
2022/12/28 01:27:34;;;;;;;13.23;8.10;;;;;;;1.56;90.70;99710.33;2282371;78;21601;-84
2022/12/28 01:30:34;;;;;;;13.97;8.40;;;;;;;1.60;90.72;99704.97;2281767;77;20941;-84
2022/12/28 01:33:34;;;;;;;16.13;9.17;;;;;;;1.65;90.61;99699.70;2281556;77;21034;-84
2022/12/28 01:36:35;;;;;;;16.47;9.47;;;;;;;1.72;90.52;99706.99;2282302;78;21364;-84
2022/12/28 01:39:35;;;;;;;15.10;8.50;;;;;;;1.75;90.29;99706.32;2282173;77;20902;-84
2022/12/28 01:42:36;;;;;;;15.80;9.17;;;;;;;1.72;90.17;99704.42;2282558;78;20945;-83
2022/12/28 01:45:39;;;;;;;17.43;8.80;;;;;;;1.73;90.18;99702.33;2282861;77;21317;-83
2022/12/28 01:48:39;;;;;;;15.70;8.93;;;;;;;1.78;90.26;99702.25;2282434;77;20961;-84
2022/12/28 01:51:40;;;;;;;19.40;9.23;;;;;;;1.81;90.06;99700.25;2282205;78;20973;-83
2022/12/28 01:54:40;;;;;;;14.80;8.87;;;;;;;1.81;89.95;99707.58;2282645;77;20922;-86
2022/12/28 01:57:40;;;;;;;20.17;9.93;;;;;;;1.77;89.92;99708.19;2282113;77;20926;-83
2022/12/28 02:00:41;;;;;;;19.27;9.80;;;;;;;1.73;90.03;99704.91;2281129;77;20985;-85
2022/12/28 02:03:41;;;;;;;18.67;9.00;;;;;;;1.69;89.87;99698.20;2280682;78;21425;-85
2022/12/28 02:06:42;;;;;;;19.77;10.00;;;;;;;1.59;89.94;99697.64;2281639;77;20938;-84
2022/12/28 02:09:42;;;;;;;19.07;9.17;;;;;;;1.50;90.03;99696.20;2282266;78;20965;-83
2022/12/28 02:12:42;;;;;;;19.17;9.90;;;;;;;1.43;90.11;99687.62;2281750;78;21312;-85
2022/12/28 02:15:43;;;;;;;15.10;9.07;;;;;;;1.37;90.19;99688.53;2281380;77;20978;-84
2022/12/28 02:18:43;;;;;;;16.27;9.83;;;;;;;1.30;90.36;99687.27;2281273;78;21265;-83
2022/12/28 02:21:43;;;;;;;17.17;9.40;;;;;;;1.25;90.40;99681.84;2284903;77;21003;-83
2022/12/28 02:24:44;;;;;;;18.27;10.17;;;;;;;1.23;90.46;99679.97;2291822;78;20991;-84
2022/12/28 02:27:44;;;;;;;18.30;10.20;;;;;;;1.19;90.42;99675.03;2291733;78;20960;-84
2022/12/28 02:30:45;;;;;;;21.87;10.60;;;;;;;1.15;90.35;99683.35;2291302;78;20959;-84
2022/12/28 02:33:45;;;;;;;20.00;10.30;;;;;;;1.11;90.43;99683.95;2291519;78;20997;-84
2022/12/28 02:36:46;;;;;;;17.80;9.70;;;;;;;1.10;90.50;99681.29;2291824;78;20924;-84
2022/12/28 02:39:46;;;;;;;22.23;9.83;;;;;;;1.05;90.48;99677.15;2291901;78;21019;-85
2022/12/28 02:42:47;;;;;;;20.37;10.77;;;;;;;1.02;90.99;99674.39;2291136;78;20991;-85
2022/12/28 02:52:12;;;;;;;19.93;11.13;;;;;;;1.11;91.21;99653.50;2291304;78;20968;-85
2022/12/28 02:58:31;;;;;;;20.87;11.13;;;;;;;1.15;91.04;99641.32;2291216;77;21261;-84
2022/12/28 03:01:32;;;;;;;25.07;11.23;;;;;;;1.16;90.90;99635.38;2291515;78;20967;-84
2022/12/28 03:04:32;;;;;;;19.50;10.63;;;;;;;1.14;90.88;99632.72;2290870;78;20987;-84
2022/12/28 03:10:52;;;;;;;25.50;11.70;;;;;;;1.08;90.78;99632.73;2291386;77;20900;-85
2022/12/28 03:13:52;;;;;;;21.20;11.67;;;;;;;1.05;90.79;99627.02;2291291;78;20944;-84
2022/12/28 04:08:31;;;;;;;21.17;11.47;;;;;;;1.31;90.33;99612.28;2349330;76;23076;-83
2022/12/28 04:11:32;;;;;;;22.37;11.73;;;;;;;1.33;90.27;99616.72;2318302;77;20986;-83
2022/12/28 04:14:32;;;;;;;23.03;12.73;;;;;;;1.36;90.03;99613.44;2318389;77;21010;-84
2022/12/28 04:17:32;;;;;;;23.57;12.27;;;;;;;1.38;89.71;99614.42;2317855;77;20955;-84
2022/12/28 04:20:33;;;;;;;24.33;12.60;;;;;;;1.40;89.67;99611.55;2317680;77;20919;-83
2022/12/28 04:23:33;;;;;;;22.17;12.43;;;;;;;1.42;89.53;99605.69;2317751;77;20936;-83
2022/12/28 04:26:33;;;;;;;24.60;12.63;;;;;;;1.44;89.23;99603.21;2318328;77;20963;-83
2022/12/28 04:29:34;;;;;;;23.10;12.17;;;;;;;1.42;89.01;99600.94;2318286;77;20908;-83
2022/12/28 04:32:34;;;;;;;19.73;11.27;;;;;;;1.39;88.99;99604.63;2318756;77;20971;-83
2022/12/28 04:35:35;;;;;;;22.67;12.47;;;;;;;1.35;88.90;99605.23;2317997;77;20973;-83
2022/12/28 04:38:35;;;;;;;24.17;11.83;;;;;;;1.32;88.82;99603.37;2318275;77;20931;-82
2022/12/28 04:41:35;;;;;;;26.63;12.10;;;;;;;1.28;88.73;99602.30;2317120;77;21010;-83
2022/12/28 04:44:36;;;;;;;25.37;11.73;;;;;;;1.25;88.73;99596.97;2317791;77;20994;-82
2022/12/28 04:47:36;;;;;;;23.40;13.40;;;;;;;1.23;88.66;99600.24;2317068;77;20975;-83
2022/12/28 04:50:37;;;;;;;23.73;12.53;;;;;;;1.20;88.72;99599.66;2317354;77;20987;-84
2022/12/28 04:53:37;;;;;;;29.07;13.57;;;;;;;1.18;88.65;99602.53;2316540;77;20918;-83
2022/12/28 04:56:37;;;;;;;28.80;13.50;;;;;;;1.15;88.57;99601.06;2317113;77;20923;-83
2022/12/28 04:59:39;;;;;;;25.27;14.17;;;;;;;1.10;88.65;99590.90;2316229;77;21249;-83
2022/12/28 05:02:38;;;;;;;29.90;14.97;;;;;;;1.05;88.75;99582.41;2316064;77;21006;-83
2022/12/28 05:05:39;;;;;;;31.40;15.20;;;;;;;1.03;88.83;99574.61;2317293;77;20982;-82
2022/12/28 05:08:39;;;;;;;27.13;14.13;;;;;;;1.00;88.80;99570.97;2305204;77;21392;-83
2022/12/28 05:11:42;;;;;;;26.27;14.50;;;;;;;0.95;88.92;99570.29;2305414;77;20964;-84
2022/12/28 05:14:43;;;;;;;34.27;14.97;;;;;;;0.91;89.02;99571.30;2304323;77;20988;-84
2022/12/28 05:17:43;;;;;;;29.63;15.30;;;;;;;0.86;89.02;99570.98;2304778;77;20913;-80
2022/12/28 05:20:43;;;;;;;36.97;15.53;;;;;;;0.81;89.14;99576.23;2303598;77;21301;-82
2022/12/28 05:23:44;;;;;;;32.83;14.83;;;;;;;0.81;89.37;99580.48;2302679;77;20913;-83
2022/12/28 05:26:44;;;;;;;28.70;13.67;;;;;;;0.78;89.56;99575.16;2303518;77;20999;-82
2022/12/28 05:29:44;;;;;;;26.17;14.47;;;;;;;0.76;89.48;99567.75;2303711;77;20924;-82
2022/12/28 05:32:45;;;;;;;34.00;15.40;;;;;;;0.71;89.57;99567.86;2303382;77;20866;-83
2022/12/28 05:35:45;;;;;;;28.07;15.20;;;;;;;0.68;89.76;99570.24;2303307;77;21708;-83
2022/12/28 05:38:46;;;;;;;25.03;15.23;;;;;;;0.66;90.07;99564.13;2304251;77;21005;-81
2022/12/28 05:41:46;;;;;;;28.13;15.30;;;;;;;0.63;89.96;99559.69;2304050;77;20968;-84
2022/12/28 05:44:46;;;;;;;29.50;15.20;;;;;;;0.60;89.94;99557.81;2303248;77;20984;-83
2022/12/28 05:47:47;;;;;;;30.87;15.70;;;;;;;0.59;90.09;99555.15;2302276;77;20934;-82
2022/12/28 05:50:47;;;;;;;31.00;15.17;;;;;;;0.58;90.20;99550.80;2302849;77;20914;-79
2022/12/28 05:53:48;;;;;;;29.10;14.77;;;;;;;0.57;90.19;99547.34;2302377;77;20913;-83
2022/12/28 05:56:48;;;;;;;32.97;14.43;;;;;;;0.55;90.50;99539.05;2302093;77;20974;-84
2022/12/28 05:59:49;;;;;;;29.60;15.20;;;;;;;0.55;90.50;99539.05;2302035;77;20988;-84
2022/12/28 06:02:49;;;;;;;36.53;16.87;;;;;;;0.60;90.49;99546.25;2303053;77;20936;-84
2022/12/28 06:05:50;;;;;;;34.43;16.83;;;;;;;0.62;90.43;99548.52;2302478;77;21027;-85
2022/12/28 06:08:50;;;;;;;42.87;20.73;;;;;;;0.63;90.35;99541.30;2313263;77;21057;-83
2022/12/28 06:11:51;;;;;;;56.90;28.97;;;;;;;0.60;90.06;99538.55;2315149;77;20943;-80
2022/12/28 06:14:54;;;;;;;64.57;26.03;;;;;;;0.55;89.99;99537.38;2315512;77;20896;-81
2022/12/28 06:17:54;;;;;;;51.97;24.10;;;;;;;0.55;90.22;99530.95;2314418;77;21027;-81
2022/12/28 06:20:55;;;;;;;44.97;20.37;;;;;;;0.54;90.17;99534.31;2314728;77;20883;-80
2022/12/28 06:23:58;;;;;;;59.83;23.97;;;;;;;0.52;90.12;99529.48;2315405;77;21022;-81
2022/12/28 06:26:58;;;;;;;79.77;34.43;;;;;;;0.51;90.11;99529.37;2315748;77;21322;-80
2022/12/28 06:29:59;;;;;;;44.80;23.43;;;;;;;0.51;90.44;99526.41;2314834;77;20895;-80
2022/12/28 06:32:59;;;;;;;37.50;18.23;;;;;;;0.53;90.58;99527.39;2314616;77;20942;-81
2022/12/28 06:35:59;;;;;;;32.40;17.40;;;;;;;0.58;90.45;99525.11;2315059;77;21357;-81
2022/12/28 06:39:00;;;;;;;33.57;18.27;;;;;;;0.59;90.27;99517.89;2314156;77;20915;-83
2022/12/28 06:42:00;;;;;;;30.83;16.10;;;;;;;0.61;90.29;99514.63;2314354;77;20923;-81
2022/12/28 06:45:01;;;;;;;27.30;16.13;;;;;;;0.67;90.27;99514.52;2314873;77;20915;-82
2022/12/28 06:48:01;;;;;;;44.87;19.07;;;;;;;0.70;90.12;99514.70;2315164;77;20994;-80
2022/12/28 06:51:02;;;;;;;22.73;13.70;;;;;;;0.73;89.90;99514.88;2315140;77;20946;-82
2022/12/28 06:54:02;;;;;;;24.83;14.23;;;;;;;0.73;89.83;99511.03;2315359;77;21005;-82
2022/12/28 06:57:02;;;;;;;35.77;14.43;;;;;;;0.76;89.79;99508.25;2315587;77;21378;-81
2022/12/28 07:00:03;;;;;;;21.70;13.13;;;;;;;0.79;89.55;99502.41;2315880;77;20958;-82
2022/12/28 07:03:03;;;;;;;22.87;10.57;;;;;;;0.84;89.62;99499.72;2315809;77;20979;-79
2022/12/28 07:06:04;;;;;;;24.57;11.87;;;;;;;0.90;89.32;99498.44;2315332;77;21327;-82
2022/12/28 07:09:04;;;;;;;20.63;10.43;;;;;;;0.97;89.10;99503.55;2314292;77;21054;-81
2022/12/28 07:12:04;;;;;;;22.00;10.80;;;;;;;1.01;88.75;99496.91;2314567;77;20927;-82
2022/12/28 07:15:05;;;;;;;24.07;9.93;;;;;;;1.08;88.29;99493.90;2314969;77;21350;-82
2022/12/28 07:18:05;;;;;;;16.23;8.90;;;;;;;1.13;88.32;99494.66;2314981;77;20931;-81
2022/12/28 07:21:05;;;;;;;21.23;9.37;;;;;;;1.20;87.96;99489.08;2315692;77;20944;-83
2022/12/28 07:24:06;;;;;;;17.23;9.20;;;;;;;1.27;87.55;99487.35;2316936;77;21326;-82
2022/12/28 07:27:06;;;;;;;27.60;8.80;;;;;;;1.36;87.42;99486.11;2316223;77;20939;-81
2022/12/28 07:30:07;;;;;;;21.10;9.13;;;;;;;1.42;86.99;99484.78;2315474;77;20907;-81
2022/12/28 07:33:07;;;;;;;14.77;8.03;;;;;;;1.52;86.76;99479.77;2315475;77;20883;-79
2022/12/28 07:36:07;;;;;;;16.37;8.70;;;;;;;1.60;86.40;99478.52;2315064;77;20903;-81
2022/12/28 07:39:09;;;;;;;20.50;8.13;;;;;;;1.66;85.78;99470.25;2314969;77;20990;-83
2022/12/28 07:42:10;;;;;;;22.77;8.30;;;;;;;1.75;85.79;99467.83;2314768;77;20951;-81
2022/12/28 07:45:11;;;;;;;27.13;9.00;;;;;;;1.83;85.13;99466.58;2314865;77;20903;-83
2022/12/28 07:48:09;;;;;;;96.63;17.10;;;;;;;1.91;85.14;99467.89;2314504;77;20943;-81
2022/12/28 07:51:10;;;;;;;39.13;13.03;;;;;;;2.00;85.22;99464.05;2313574;77;20962;-81
2022/12/28 07:54:10;;;;;;;22.13;10.13;;;;;;;2.11;85.11;99461.66;2314413;77;20951;-82
2022/12/28 07:57:10;;;;;;;21.90;10.23;;;;;;;2.19;84.67;99453.55;2314134;77;20982;-82
2022/12/28 08:00:11;;;;;;;19.40;10.03;;;;;;;2.31;84.72;99457.59;2313784;77;20919;-82
2022/12/28 08:03:11;;;;;;;16.00;9.20;;;;;;;2.42;83.82;99461.63;2314873;77;20919;-82
2022/12/28 08:06:12;;;;;;;28.33;10.87;;;;;;;2.53;83.62;99460.10;2314213;77;21994;-82
2022/12/28 08:09:12;;;;;;;20.13;9.33;;;;;;;2.62;83.60;99462.72;2302137;77;20984;-82
2022/12/28 08:12:14;;;;;;;22.60;9.97;;;;;;;2.71;82.87;99469.64;2274767;77;20925;-82
2022/12/28 08:15:15;;;;;;;18.67;10.17;;;;;;;2.80;82.77;99462.39;2302478;77;20972;-82
2022/12/28 08:18:15;;;;;;;22.70;10.20;;;;;;;2.87;82.32;99460.61;2301756;77;21029;-82
2022/12/28 08:21:15;;;;;;;29.40;11.57;;;;;;;2.95;82.30;99450.28;2301244;77;20917;-82
2022/12/28 08:24:16;;;;;;;21.40;10.13;;;;;;;3.02;81.90;99451.08;2302026;77;20931;-82
2022/12/28 08:27:16;;;;;;;26.40;10.40;;;;;;;3.09;81.18;99447.12;2302243;77;20991;-81
2022/12/28 08:30:17;;;;;;;18.13;10.47;;;;;;;3.13;80.73;99446.06;2301650;77;20966;-83
2022/12/28 08:33:17;;;;;;;23.10;10.57;;;;;;;3.24;80.92;99447.89;2300703;77;21316;-79
2022/12/28 08:36:17;;;;;;;18.93;9.20;;;;;;;3.33;80.29;99450.93;2300610;77;20922;-80
2022/12/28 08:39:18;;;;;;;13.60;7.90;;;;;;;3.44;80.14;99447.59;2300523;77;20960;-83
2022/12/28 08:42:18;;;;;;;14.80;7.90;;;;;;;3.54;78.88;99456.30;2301029;77;21297;-82
2022/12/28 08:45:19;;;;;;;27.67;8.20;;;;;;;3.61;78.82;99454.90;2301888;77;20921;-83
2022/12/28 08:48:19;;;;;;;14.17;8.43;;;;;;;3.71;78.67;99457.12;2302551;77;21031;-83
2022/12/28 08:51:19;;;;;;;12.70;8.60;;;;;;;3.88;78.70;99461.80;2301987;77;21671;-82
2022/12/28 08:54:20;;;;;;;22.63;10.20;;;;;;;3.94;78.36;99462.98;2301703;77;20958;-82
2022/12/28 08:57:20;;;;;;;18.23;9.27;;;;;;;3.99;78.06;99457.63;2301372;77;20890;-82
2022/12/28 09:00:21;;;;;;;17.60;6.93;;;;;;;4.07;78.28;99455.41;2301147;77;21345;-82
2022/12/28 09:03:21;;;;;;;11.03;6.70;;;;;;;4.15;77.89;99447.60;2300955;77;20917;-82
2022/12/28 09:06:22;;;;;;;15.23;6.30;;;;;;;4.21;76.99;99445.30;2300943;77;21249;-82
2022/12/28 09:09:22;;;;;;;9.50;5.07;;;;;;;4.32;76.34;99445.80;2285321;76;20966;-83
2022/12/28 09:12:22;;;;;;;9.73;5.00;;;;;;;4.30;75.29;99450.89;2284029;78;20922;-82
2022/12/28 09:15:23;;;;;;;9.63;4.27;;;;;;;4.33;75.14;99444.98;2284311;78;20950;-83
2022/12/28 09:18:23;;;;;;;12.33;5.43;;;;;;;4.33;75.50;99447.56;2284975;78;20982;-82
2022/12/28 09:21:24;;;;;;;10.93;5.17;;;;;;;4.35;76.45;99449.44;2284046;78;21322;-82
2022/12/28 09:24:24;;;;;;;8.97;4.83;;;;;;;4.43;75.12;99445.50;2284031;78;20918;-82
2022/12/28 09:27:24;;;;;;;11.33;4.93;;;;;;;4.41;73.52;99443.26;2283591;78;20977;-82
2022/12/28 09:30:25;;;;;;;14.73;5.60;;;;;;;4.44;73.30;99445.98;2284052;78;20934;-81
2022/12/28 09:36:44;;;;;;;13.90;6.10;;;;;;;4.52;74.51;99436.39;2283006;78;20867;-83
2022/12/28 09:39:44;;;;;;;15.70;6.53;;;;;;;4.55;73.65;99439.12;2283097;78;20895;-83
2022/12/28 09:42:45;;;;;;;9.40;6.00;;;;;;;4.56;74.48;99430.55;2282837;78;20954;-83
2022/12/28 09:45:45;;;;;;;12.73;6.23;;;;;;;4.61;73.12;99436.80;2282165;78;21005;-81
2022/12/28 09:48:45;;;;;;;14.43;6.70;;;;;;;4.58;72.87;99425.03;2281888;78;20931;-82
2022/12/28 09:51:46;;;;;;;12.90;6.60;;;;;;;4.57;73.04;99433.61;2283616;78;21391;-81
2022/12/28 09:54:46;;;;;;;12.13;6.43;;;;;;;4.56;73.28;99424.97;2283521;78;21003;-82
2022/12/28 09:57:47;;;;;;;13.63;6.50;;;;;;;4.54;72.66;99430.88;2284092;78;20935;-83
2022/12/28 10:00:47;;;;;;;12.60;6.43;;;;;;;4.50;72.58;99428.57;2284260;78;20990;-82
2022/12/28 10:03:47;;;;;;;15.53;6.70;;;;;;;4.44;73.04;99424.02;2284351;78;20946;-82
2022/12/28 10:06:50;;;;;;;14.23;6.67;;;;;;;4.42;73.16;99410.12;2255025;78;20978;-81
2022/12/28 10:09:50;;;;;;;17.30;7.20;;;;;;;4.44;73.43;99407.20;2314218;77;21359;-84
2022/12/28 10:12:51;;;;;;;17.17;7.33;;;;;;;4.43;72.89;99401.97;2316078;77;21012;-81
2022/12/28 10:15:51;;;;;;;16.60;6.90;;;;;;;4.45;72.94;99399.93;2315077;77;20939;-82
2022/12/28 10:18:51;;;;;;;14.30;7.40;;;;;;;4.46;72.69;99393.94;2315070;77;21355;-83
2022/12/28 10:21:52;;;;;;;20.57;8.00;;;;;;;4.46;72.76;99394.34;2315646;77;20884;-80
2022/12/28 10:24:52;;;;;;;15.17;7.63;;;;;;;4.42;72.44;99382.98;2316656;77;20911;-83
2022/12/28 10:27:53;;;;;;;18.03;7.87;;;;;;;4.42;72.18;99384.28;2315554;77;21342;-82
2022/12/28 10:30:53;;;;;;;12.20;7.30;;;;;;;4.42;72.64;99380.41;2314800;77;20987;-80
2022/12/28 10:33:53;;;;;;;14.80;7.93;;;;;;;4.45;72.70;99371.91;2316026;77;21313;-80
2022/12/28 10:36:54;;;;;;;16.07;8.37;;;;;;;4.49;72.65;99369.92;2314767;77;20968;-81
2022/12/28 10:39:54;;;;;;;12.77;7.77;;;;;;;4.51;72.16;99367.00;2314094;77;20943;-81
2022/12/28 10:42:54;;;;;;;19.80;9.00;;;;;;;4.51;71.89;99358.36;2315252;77;21677;-83
2022/12/28 10:45:55;;;;;;;27.20;8.10;;;;;;;4.47;72.01;99351.77;2314285;77;21323;-83
2022/12/28 10:48:55;;;;;;;17.17;8.30;;;;;;;4.53;72.53;99348.97;2314394;77;20911;-82
2022/12/28 10:51:56;;;;;;;19.00;8.30;;;;;;;4.60;71.78;99350.59;2314677;77;20911;-80
2022/12/28 10:54:56;;;;;;;13.93;7.27;;;;;;;4.64;71.59;99334.39;2315319;77;20991;-82
2022/12/28 10:57:56;;;;;;;15.43;7.97;;;;;;;4.69;71.48;99327.72;2314265;77;20943;-82
2022/12/28 11:00:57;;;;;;;14.03;6.53;;;;;;;4.69;71.10;99317.38;2314990;77;20923;-83
2022/12/28 11:03:57;;;;;;;18.03;7.87;;;;;;;4.72;70.79;99314.91;2314819;77;21433;-81
2022/12/28 11:06:59;;;;;;;20.77;8.37;;;;;;;4.75;71.01;99306.41;2314551;77;20947;-81
2022/12/28 11:09:58;;;;;;;15.67;7.90;;;;;;;4.82;71.16;99300.66;2300808;77;21004;-82
2022/12/28 11:12:58;;;;;;;13.63;7.70;;;;;;;4.86;71.31;99299.97;2301315;77;21332;-82
2022/12/28 11:15:59;;;;;;;15.30;7.37;;;;;;;4.87;70.14;99297.86;2301567;77;20890;-80
2022/12/28 11:18:59;;;;;;;15.47;7.40;;;;;;;4.84;70.43;99279.63;2300987;77;21368;-80
2022/12/28 11:22:00;;;;;;;23.27;8.13;;;;;;;4.80;70.60;99281.61;2300269;77;20926;-82
2022/12/28 11:25:00;;;;;;;18.43;7.40;;;;;;;4.75;69.96;99274.08;2300941;77;20905;-81
2022/12/28 11:28:00;;;;;;;14.57;7.30;;;;;;;4.73;70.64;99270.13;2299785;77;20935;-80
2022/12/28 11:31:01;;;;;;;15.90;7.90;;;;;;;4.70;69.55;99268.71;2301327;77;20937;-81
2022/12/28 11:34:03;;;;;;;13.53;8.07;;;;;;;4.69;70.50;99264.77;2301343;77;20941;-81
2022/12/28 11:37:02;;;;;;;23.23;8.10;;;;;;;4.74;70.69;99260.67;2302531;77;20945;-80
2022/12/28 11:40:02;;;;;;;16.53;7.33;;;;;;;4.80;69.53;99263.51;2301243;77;21348;-81
2022/12/28 11:43:02;;;;;;;16.17;8.23;;;;;;;4.90;69.82;99249.25;2301030;77;21355;-81
2022/12/28 11:46:03;;;;;;;20.57;9.23;;;;;;;4.94;69.97;99239.50;2301217;77;21395;-82
2022/12/28 11:49:03;;;;;;;19.67;8.37;;;;;;;4.96;69.92;99236.15;2301630;77;20881;-80
2022/12/28 11:52:04;;;;;;;17.23;9.33;;;;;;;5.00;69.24;99239.33;2300617;77;20918;-80
2022/12/28 11:55:04;;;;;;;21.03;9.00;;;;;;;5.02;69.71;99235.09;2301990;77;20921;-80
2022/12/28 11:58:04;;;;;;;21.67;10.17;;;;;;;5.05;69.49;99232.63;2301801;77;21308;-80
2022/12/28 12:01:05;;;;;;;17.67;9.67;;;;;;;5.06;69.44;99236.98;2302054;77;20970;-81
2022/12/28 12:04:08;;;;;;;22.10;9.37;;;;;;;5.10;69.50;99224.64;2300529;77;20909;-81
2022/12/28 12:07:06;;;;;;;22.60;9.77;;;;;;;5.13;69.14;99217.00;2299970;77;21371;-79
2022/12/28 12:10:06;;;;;;;23.43;9.37;;;;;;;5.12;68.47;99210.05;2284437;76;21014;-81
2022/12/28 12:13:06;;;;;;;15.47;8.37;;;;;;;5.12;68.47;99210.05;2282804;78;20915;-81
2022/12/28 12:16:07;;;;;;;16.50;8.37;;;;;;;5.11;68.94;99205.70;2283010;78;21386;-81
2022/12/28 12:19:07;;;;;;;21.00;8.87;;;;;;;5.12;68.87;99199.70;2282520;78;20927;-80
2022/12/28 12:22:08;;;;;;;15.37;8.30;;;;;;;5.15;69.21;99198.06;2282836;78;21308;-81
2022/12/28 12:25:08;;;;;;;13.30;6.93;;;;;;;5.16;69.03;99191.65;2281968;78;20963;-82
2022/12/28 12:28:08;;;;;;;15.30;7.47;;;;;;;5.20;69.39;99185.80;2283071;78;21302;-82
2022/12/28 12:31:10;;;;;;;19.33;8.20;;;;;;;5.31;67.82;99181.91;2282623;78;20911;-80
2022/12/28 12:34:09;;;;;;;16.07;8.27;;;;;;;5.31;68.06;99167.68;2283105;78;20918;-80
2022/12/28 12:37:10;;;;;;;19.93;7.77;;;;;;;5.33;68.34;99163.85;2283117;78;21294;-81
2022/12/28 12:40:10;;;;;;;15.93;8.20;;;;;;;5.37;67.87;99155.37;2282668;78;20994;-81
2022/12/28 12:43:11;;;;;;;19.70;8.07;;;;;;;5.43;67.93;99159.48;2283340;78;20938;-86
2022/12/28 12:46:11;;;;;;;16.33;8.10;;;;;;;5.49;67.65;99149.77;2281911;78;21025;-80
2022/12/28 12:49:11;;;;;;;17.13;7.97;;;;;;;5.48;66.86;99147.59;2282005;78;20938;-81
2022/12/28 12:52:12;;;;;;;16.73;8.00;;;;;;;5.39;67.33;99151.14;2281952;78;20956;-82
2022/12/28 12:55:12;;;;;;;16.87;8.20;;;;;;;5.36;67.66;99145.84;2281642;78;20910;-82
2022/12/28 12:58:13;;;;;;;16.70;7.40;;;;;;;5.33;67.62;99147.91;2281512;78;20973;-80
2022/12/28 13:01:13;;;;;;;11.93;6.73;;;;;;;5.28;67.50;99142.97;2281460;78;20927;-82
2022/12/28 13:04:13;;;;;;;13.63;6.50;;;;;;;5.25;66.97;99145.45;2282172;78;21036;-80
2022/12/28 13:07:14;;;;;;;14.17;6.53;;;;;;;5.20;67.36;99135.34;2282397;78;20906;-81
2022/12/28 13:10:14;;;;;;;18.40;8.07;;;;;;;5.18;66.79;99129.60;2297379;77;20953;-81
2022/12/28 13:13:15;;;;;;;17.03;8.13;;;;;;;5.17;67.59;99123.95;2300594;77;20957;-81
2022/12/28 13:16:15;;;;;;;16.07;7.23;;;;;;;5.20;67.40;99115.92;2299820;77;20960;-79
2022/12/28 13:19:15;;;;;;;19.97;7.13;;;;;;;5.21;66.46;99120.27;2299168;77;20960;-80
2022/12/28 13:22:16;;;;;;;14.63;7.97;;;;;;;5.16;67.26;99110.55;2298602;77;21118;-80
2022/12/28 13:25:16;;;;;;;13.73;7.47;;;;;;;5.06;67.69;99113.20;2298673;77;20914;-81
2022/12/28 13:28:17;;;;;;;27.97;7.50;;;;;;;4.98;67.93;99096.51;2298694;77;20961;-81
2022/12/28 13:31:17;;;;;;;13.23;6.67;;;;;;;4.92;67.97;99098.45;2298519;77;20922;-82
2022/12/28 13:34:18;;;;;;;16.17;6.87;;;;;;;4.86;67.61;99099.52;2299719;77;20988;-81
2022/12/28 13:37:18;;;;;;;14.80;6.93;;;;;;;4.82;68.07;99087.70;2299313;77;21419;-80
2022/12/28 13:40:18;;;;;;;15.43;7.67;;;;;;;4.80;68.17;99092.81;2300014;77;20973;-79
2022/12/28 13:43:19;;;;;;;17.73;7.53;;;;;;;4.78;68.79;99084.11;2300940;77;20959;-80
2022/12/28 13:46:19;;;;;;;21.20;8.40;;;;;;;5.13;70.55;99089.31;2300462;77;20906;-81
2022/12/28 13:49:20;;;;;;;18.53;10.00;;;;;;;5.17;69.03;99091.61;2300292;77;20878;-80
2022/12/28 13:52:20;;;;;;;17.53;10.23;;;;;;;5.03;68.90;99086.80;2299684;77;20932;-79
2022/12/28 13:55:20;;;;;;;23.67;11.27;;;;;;;4.93;68.51;99084.69;2300652;77;20952;-82
2022/12/28 13:58:21;;;;;;;20.17;10.77;;;;;;;4.88;69.29;99084.05;2301362;77;20942;-82
2022/12/28 14:01:21;;;;;;;19.00;10.90;;;;;;;4.83;69.61;99077.41;2301874;77;20914;-80
2022/12/28 14:04:22;;;;;;;30.73;14.90;;;;;;;4.78;69.64;99071.19;2301507;77;20984;-79
2022/12/28 14:07:22;;;;;;;31.87;14.47;;;;;;;4.70;69.81;99061.84;2301580;77;20956;-81
2022/12/28 14:10:22;;;;;;;22.93;12.50;;;;;;;4.62;70.15;99055.49;2311084;76;21027;-80
2022/12/28 14:13:23;;;;;;;28.43;12.73;;;;;;;4.54;70.35;99068.95;2314136;77;20911;-79
2022/12/28 14:16:23;;;;;;;30.10;12.20;;;;;;;4.43;70.54;99065.53;2314196;77;20990;-81
2022/12/28 14:19:23;;;;;;;18.90;10.20;;;;;;;4.37;70.87;99065.70;2313306;77;20966;-80
2022/12/28 14:22:24;;;;;;;14.73;9.60;;;;;;;4.33;71.01;99065.07;2313060;77;21578;-79
2022/12/28 14:25:24;;;;;;;23.57;9.60;;;;;;;4.29;71.10;99049.86;2312738;77;20968;-80
2022/12/28 14:28:25;;;;;;;19.07;8.77;;;;;;;4.24;71.34;99043.63;2313038;77;21010;-79
2022/12/28 14:31:25;;;;;;;20.10;10.03;;;;;;;4.17;71.50;99051.95;2313313;77;20907;-79
2022/12/28 14:34:25;;;;;;;29.83;13.90;;;;;;;4.07;71.89;99052.40;2313636;77;20912;-79
2022/12/28 14:37:26;;;;;;;21.77;11.33;;;;;;;3.98;72.20;99054.61;2313292;77;20943;-80
2022/12/28 14:40:26;;;;;;;22.60;10.50;;;;;;;3.88;72.46;99053.35;2313118;77;21029;-80
2022/12/28 14:43:27;;;;;;;21.53;12.10;;;;;;;3.81;72.82;99049.63;2313792;77;20923;-81
2022/12/28 14:46:27;;;;;;;25.57;13.10;;;;;;;3.77;73.21;99053.31;2314765;77;21304;-81
2022/12/28 14:49:27;;;;;;;31.53;12.93;;;;;;;3.72;73.43;99050.95;2315860;77;20931;-82
2022/12/28 14:52:28;;;;;;;32.87;13.70;;;;;;;3.68;73.68;99043.89;2316665;77;21000;-82
2022/12/28 14:55:28;;;;;;;34.33;14.97;;;;;;;3.60;73.91;99037.12;2316805;77;20959;-81
2022/12/28 14:58:29;;;;;;;33.17;15.13;;;;;;;3.53;74.32;99035.09;2316498;77;21393;-80
2022/12/28 15:01:29;;;;;;;29.10;15.03;;;;;;;3.45;74.45;99031.27;2316405;77;20911;-81
2022/12/28 15:04:29;;;;;;;41.77;15.47;;;;;;;3.40;74.76;99032.78;2315458;77;20912;-82
2022/12/28 15:07:30;;;;;;;23.87;10.97;;;;;;;3.37;75.14;99026.20;2315517;77;20931;-81
2022/12/28 15:10:30;;;;;;;24.67;11.77;;;;;;;3.38;75.23;99024.97;2291082;76;20971;-81